Woodland Hills, CA (91364)

10:49 PM PST on February 13, 2016 (GMT -0800)
RAWS | | Change Station
CLOSE
Current Station
Personal Weather Station
Location: Woodland Hills, CA
Elevation: 1600 ft
Nearby Weather Stations
Active Advisory: Wind Advisory Active Notice: Public Information Statement

Elev 1600 ft 34.14 °N, 118.61 °W | Updated 52 minutes ago

Clear
Clear
68 °F
Feels Like 68 °F
N
5
Wind Variable Wind from SSE
Gusts 17.0 mph

Today
High -- | Low -- °F
--% Chance of Precip.
Yesterday
High -- | Low -- °F
Precip. -- in
Pressure 30.05 in
Visibility 10.0 miles
Clouds Clear
Dew Point 29 °F
Humidity 23%
Rainfall in
Snow Depth Not available.
6:41 AM 5:36 PM
Waxing Crescent, 38% visible
METAR KVNY 140551Z 34009KT 10SM CLR 21/01 A3007 RMK AO2 SLP176 T02060006 10261 20178 53008
Pressure 30.05 in
Visibility 10.0 miles
Clouds Clear
Dew Point 29 °F
Humidity 23%
Rainfall in
Snow Depth Not available.
6:41 AM 5:36 PM
Waxing Crescent, 38% visible
METAR KVNY 140551Z 34009KT 10SM CLR 21/01 A3007 RMK AO2 SLP176 T02060006 10261 20178 53008

10-Day Weather Forecast

Almanac

Astronomy

Feb. 13, 2016 Rise Set
Actual Time
Civil Twilight
Nautical Twilight
Astronomical Twilight
Moon
Length of Visible Light
Length of Day
Tomorrow will be .
, % of the Moon is Illuminated

Today's Extremes

State Highs State Lows

Community

WunderPhotos

Upload Photos

1,892,757 photos uploaded!

WunderBlog® & News

Nearby

Air Quality

  Air Quality AQ Index Pollutant
Not available.

Snow Depth

Station Depth Elevation

Earthquake Activity

City Distance Mag. Time & Date
Minimum magnitude displayed is 2.5.

Coastal Water Temperatures

Place Temperature

Stations

Nearby Weather Stations

Station Location Temp. Windchill Dew Point Humidity Wind Precip. Elev Updated Type
                   

Watches & Warnings

Wind Advisory
Issued: 9:53 PM PST Feb. 13, 2016 – National Weather Service

... Wind Advisory remains in effect until 3 PM PST Sunday...

* winds and timing... areas of north winds increasing to 15 to 25
mph with gusts to 40 mph... shifting to the northeast on
Sunday.

* Impacts... major roadways that could be affected include
interstates 5 and 405... as well as highways 101 and 118.

Precautionary/preparedness actions...

When driving... use extra caution. Be prepared for sudden gusty
cross winds.